Terminal Aerodrome Forecast
Issued by NWS Cleveland, OH

Home | Current Version | Previous Version | Graphics & Text | Print | Product List | Glossary On
Versions: 1 2 3 4 5 6 7 8 9 10 11 12 13 14 15 16 17
000
FTUS41 KCLE 270540
TAFYNG
TAF
KYNG 270540Z 2706/2806 06010KT 6SM -RA BR SCT035 OVC110
      TEMPO 2706/2708 4SM -RA BR OVC025
     FM270800 09010KT 5SM SHRA BR OVC015
      TEMPO 2708/2712 3SM SHRA BR OVC008
     FM271200 08012G18KT 3SM SHRA BR OVC008
     FM271600 10015G22KT 4SM -SHRA BR VCTS OVC012CB
     FM272200 12012KT 4SM -SHRA BR VCTS OVC012CB
     FM280300 19012KT 3SM -SHRA BR OVC007=

USA.gov is the U.S. government's official web portal to all federal, state and local government web resources and services.